createdAt,value
2023-02-02T00:01:52.134Z,102011.28
2023-02-02T00:04:24.690Z,102008.56
2023-02-02T00:06:53.468Z,102020.88
2023-02-02T00:09:22.775Z,102026.78
2023-02-02T00:11:52.374Z,102019.81
2023-02-02T00:14:23.982Z,102020.53
2023-02-02T00:16:54.454Z,102030.03
2023-02-02T00:19:26.964Z,102027.38
2023-02-02T00:21:56.216Z,102029.06
2023-02-02T00:24:25.954Z,102013.19
2023-02-02T00:26:58.943Z,102009.50
2023-02-02T00:29:29.398Z,102025.28
2023-02-02T00:31:58.424Z,102009.44
2023-02-02T00:34:28.559Z,102011.78
2023-02-02T00:36:56.889Z,102013.44
2023-02-02T00:39:27.581Z,102009.25
2023-02-02T00:41:57.619Z,102011.41
2023-02-02T00:44:55.105Z,102010.94
2023-02-02T00:47:23.965Z,102018.66
2023-02-02T00:49:54.065Z,102018.00
2023-02-02T00:52:22.935Z,102021.28
2023-02-02T00:54:51.435Z,102014.31
2023-02-02T00:57:19.738Z,102016.16
2023-02-02T00:59:53.220Z,102009.53
2023-02-02T01:02:21.694Z,102014.97
2023-02-02T01:04:50.237Z,102015.72
2023-02-02T01:07:21.446Z,102001.63
2023-02-02T01:09:50.020Z,102015.00
2023-02-02T01:12:18.647Z,102002.47
2023-02-02T01:14:47.358Z,102022.66
2023-02-02T01:17:16.115Z,102012.13
2023-02-02T01:19:44.675Z,102021.72
2023-02-02T01:22:13.262Z,102003.19
2023-02-02T01:24:43.659Z,102015.44
2023-02-02T01:27:12.278Z,102013.69
2023-02-02T01:29:40.704Z,102007.53
2023-02-02T01:32:09.247Z,102008.41
2023-02-02T01:34:42.131Z,101992.75
2023-02-02T01:37:11.739Z,101995.16
2023-02-02T01:39:40.426Z,101996.88
2023-02-02T01:42:15.624Z,101995.94
2023-02-02T01:45:19.084Z,101998.66
2023-02-02T01:47:50.847Z,101998.66
2023-02-02T01:50:22.319Z,101987.25
2023-02-02T01:52:53.939Z,101985.47
2023-02-02T01:55:26.518Z,101989.81
2023-02-02T01:58:06.508Z,101974.00
2023-02-02T02:00:35.083Z,101989.75
2023-02-02T02:03:08.373Z,101984.41
2023-02-02T02:05:43.266Z,101977.28
2023-02-02T02:08:17.156Z,101986.03
2023-02-02T02:10:45.766Z,101974.66
2023-02-02T02:13:18.191Z,101968.88
2023-02-02T02:16:12.801Z,101983.84
2023-02-02T02:18:50.595Z,101972.72
2023-02-02T02:22:00.870Z,101983.25
2023-02-02T02:25:30.234Z,101983.03
2023-02-02T02:28:48.473Z,101994.84
2023-02-02T02:32:00.133Z,101973.06
2023-02-02T02:34:38.144Z,101964.50
2023-02-02T02:37:12.287Z,101969.91
2023-02-02T02:39:47.168Z,101957.66
2023-02-02T02:42:20.389Z,101951.69
2023-02-02T02:44:50.995Z,101954.22
2023-02-02T02:47:22.563Z,101959.50
2023-02-02T02:49:51.683Z,101968.34
2023-02-02T02:52:20.147Z,101961.22
2023-02-02T02:54:52.046Z,101955.97
2023-02-02T02:57:43.177Z,101959.22
2023-02-02T03:00:28.408Z,101960.94
2023-02-02T03:03:07.094Z,101963.47
2023-02-02T03:05:45.237Z,101965.34
2023-02-02T03:08:21.173Z,101964.53
2023-02-02T03:10:50.602Z,101965.47
2023-02-02T03:13:19.864Z,101964.75
2023-02-02T03:15:48.783Z,101957.66
2023-02-02T03:18:22.822Z,101970.66
2023-02-02T03:20:51.276Z,101970.66
2023-02-02T03:23:19.984Z,101971.47
2023-02-02T03:25:49.033Z,101965.41
2023-02-02T03:28:19.530Z,101968.97
2023-02-02T03:30:50.421Z,101969.13
2023-02-02T03:33:21.067Z,101978.88
2023-02-02T03:35:49.545Z,101979.88
2023-02-02T03:38:18.019Z,101979.16
2023-02-02T03:40:46.634Z,101981.00
2023-02-02T03:43:15.237Z,101988.94
2023-02-02T03:45:43.897Z,101987.25
2023-02-02T03:48:14.465Z,101982.97
2023-02-02T03:50:45.315Z,101979.59
2023-02-02T03:53:14.164Z,101987.50
2023-02-02T03:55:43.060Z,101985.81
2023-02-02T03:58:11.656Z,101982.25
2023-02-02T04:00:40.527Z,101995.41
2023-02-02T04:03:09.280Z,101979.69
2023-02-02T04:05:37.641Z,101980.50
2023-02-02T04:08:08.209Z,101987.38
2023-02-02T04:10:36.863Z,101996.13
2023-02-02T04:13:05.857Z,101994.28
2023-02-02T04:15:34.348Z,101987.13
2023-02-02T04:18:04.160Z,101990.53
2023-02-02T04:20:32.930Z,101982.66
2023-02-02T04:23:01.446Z,101986.13
2023-02-02T04:25:31.733Z,101980.66
2023-02-02T04:28:01.380Z,101990.31
2023-02-02T04:30:31.039Z,101983.19
2023-02-02T04:32:59.746Z,101985.84
2023-02-02T04:35:28.585Z,101979.81
2023-02-02T04:37:57.248Z,101979.88
2023-02-02T04:40:26.246Z,101977.31
2023-02-02T04:42:56.365Z,101975.50
2023-02-02T04:45:25.357Z,101979.94
2023-02-02T04:47:55.503Z,101972.03
2023-02-02T04:50:24.964Z,101958.81
2023-02-02T04:52:53.833Z,101968.41
2023-02-02T04:55:22.970Z,101971.81
2023-02-02T04:57:51.874Z,101969.19
2023-02-02T05:00:22.239Z,101969.03
2023-02-02T05:02:50.965Z,101979.59
2023-02-02T05:05:20.813Z,101984.75
2023-02-02T05:07:49.231Z,101985.63
2023-02-02T05:10:18.439Z,101989.09
2023-02-02T05:12:47.053Z,101992.84
2023-02-02T05:15:15.749Z,101991.25
2023-02-02T05:17:46.036Z,101993.09
2023-02-02T05:20:15.114Z,101994.09
2023-02-02T05:22:43.800Z,101995.09
2023-02-02T05:25:12.536Z,101990.69
2023-02-02T05:27:41.318Z,102001.16
2023-02-02T05:30:13.304Z,101986.22
2023-02-02T05:32:44.849Z,101983.63
2023-02-02T05:35:13.787Z,101975.72
2023-02-02T05:37:44.701Z,101978.22
2023-02-02T05:40:14.619Z,101980.78
2023-02-02T05:42:43.286Z,101968.19
2023-02-02T05:45:12.930Z,101961.91
2023-02-02T05:47:41.545Z,101956.72
2023-02-02T05:50:12.472Z,101955.53
2023-02-02T05:52:42.814Z,101960.78
2023-02-02T05:55:12.133Z,101961.56
2023-02-02T05:57:40.648Z,101947.53
2023-02-02T06:00:10.587Z,101953.16
2023-02-02T06:02:39.274Z,101954.41
2023-02-02T06:05:09.140Z,101958.09
2023-02-02T06:07:38.914Z,101965.19
2023-02-02T06:10:07.720Z,101945.13
2023-02-02T06:12:36.391Z,101954.66
2023-02-02T06:15:05.522Z,101947.63
2023-02-02T06:17:34.864Z,101957.09
2023-02-02T06:20:03.436Z,101960.56
2023-02-02T06:22:34.506Z,101947.41
2023-02-02T06:25:08.315Z,101943.16
2023-02-02T06:27:36.883Z,101954.53
2023-02-02T06:30:06.017Z,101950.13
2023-02-02T06:32:34.422Z,101963.19
2023-02-02T06:35:02.851Z,101957.03
2023-02-02T06:37:31.772Z,101952.66
2023-02-02T06:40:00.313Z,101961.66
2023-02-02T06:42:30.959Z,101954.81
2023-02-02T06:45:00.038Z,101948.81
2023-02-02T06:47:28.697Z,101954.22
2023-02-02T06:49:57.327Z,101964.97
2023-02-02T06:52:25.889Z,101943.28
2023-02-02T06:54:54.322Z,101959.78
2023-02-02T06:57:22.781Z,101963.19
2023-02-02T06:59:52.852Z,101958.75
2023-02-02T07:02:23.796Z,101963.13
2023-02-02T07:04:53.282Z,101961.41
2023-02-02T07:07:21.599Z,101969.16
2023-02-02T07:09:58.066Z,101964.91
2023-02-02T07:12:27.417Z,101963.19
2023-02-02T07:14:59.810Z,101965.75
2023-02-02T07:17:28.462Z,101972.72
2023-02-02T07:19:57.145Z,101970.22
2023-02-02T07:22:25.772Z,101959.16
2023-02-02T07:24:54.415Z,101960.84
2023-02-02T07:27:22.951Z,101956.50
2023-02-02T07:29:51.552Z,101952.88
2023-02-02T07:32:21.462Z,101959.06
2023-02-02T07:34:51.739Z,101960.84
2023-02-02T07:37:20.225Z,101955.38
2023-02-02T07:39:48.833Z,101958.75
2023-02-02T07:42:17.313Z,101955.91
2023-02-02T07:44:46.268Z,101950.34
2023-02-02T07:47:14.753Z,101939.66
2023-02-02T07:49:46.370Z,101956.50
2023-02-02T07:52:15.993Z,101960.41
2023-02-02T07:54:44.596Z,101945.13
2023-02-02T07:57:14.112Z,101952.53
2023-02-02T07:59:42.372Z,101949.09
2023-02-02T08:02:12.497Z,101950.75
2023-02-02T08:04:41.069Z,101963.06
2023-02-02T08:07:11.448Z,101956.84
2023-02-02T08:09:40.041Z,101959.41
2023-02-02T08:12:08.861Z,101960.13
2023-02-02T08:14:37.842Z,101966.25
2023-02-02T08:17:06.569Z,101961.81
2023-02-02T08:19:34.960Z,101984.66
2023-02-02T08:22:03.899Z,101957.56
2023-02-02T08:24:34.253Z,101965.56
2023-02-02T08:27:02.920Z,101963.59
2023-02-02T08:29:43.879Z,101977.78
2023-02-02T08:32:12.550Z,101989.03
2023-02-02T08:34:42.021Z,101951.97
2023-02-02T08:37:10.871Z,101957.88
2023-02-02T08:39:42.203Z,101965.59
2023-02-02T08:42:10.963Z,101960.19
2023-02-02T08:44:44.921Z,101959.09
2023-02-02T08:47:31.144Z,101936.97
2023-02-02T08:49:59.958Z,101952.63
2023-02-02T08:52:28.607Z,101962.94
2023-02-02T08:55:48.986Z,101956.00
2023-02-02T08:58:19.083Z,101970.97
2023-02-02T09:00:47.842Z,101990.19
2023-02-02T09:03:17.663Z,101965.63
2023-02-02T09:05:48.280Z,101973.25
2023-02-02T09:08:16.612Z,101991.50
2023-02-02T09:10:45.191Z,101967.91
2023-02-02T09:13:13.585Z,101975.78
2023-02-02T09:15:44.195Z,101989.97
2023-02-02T09:18:14.490Z,101986.53
2023-02-02T09:20:46.120Z,102008.63
2023-02-02T09:23:14.689Z,101989.19
2023-02-02T09:25:45.599Z,102010.88
2023-02-02T09:28:14.448Z,101972.84
2023-02-02T09:30:44.604Z,101996.34
2023-02-02T09:33:13.626Z,101996.13
2023-02-02T09:35:42.424Z,101988.00
2023-02-02T09:38:13.871Z,101989.88
2023-02-02T09:40:43.317Z,101990.50
2023-02-02T09:43:29.086Z,101987.88
2023-02-02T09:46:10.148Z,101993.94
2023-02-02T09:48:47.645Z,101984.16
2023-02-02T09:51:23.397Z,102004.38
2023-02-02T09:53:57.256Z,102004.28
2023-02-02T09:56:32.552Z,101996.63
2023-02-02T09:59:18.796Z,101996.47
2023-02-02T10:01:57.777Z,101987.94
2023-02-02T10:04:35.853Z,102021.97
2023-02-02T10:07:11.488Z,101984.91
2023-02-02T10:09:44.864Z,102004.88
2023-02-02T10:12:29.674Z,102014.38
2023-02-02T10:15:05.609Z,102013.53
2023-02-02T10:17:43.905Z,102012.38
2023-02-02T10:20:32.208Z,102015.91
2023-02-02T10:23:10.327Z,102021.03
2023-02-02T10:25:42.192Z,102023.53
2023-02-02T10:28:19.955Z,102017.09
2023-02-02T10:30:57.262Z,102024.72
2023-02-02T10:33:39.276Z,102015.66
2023-02-02T10:36:18.466Z,102020.31
2023-02-02T10:38:56.503Z,102039.84
2023-02-02T10:41:36.573Z,102033.00
2023-02-02T10:44:17.706Z,102039.53
2023-02-02T10:46:51.516Z,102049.59
2023-02-02T10:49:31.229Z,102047.47
2023-02-02T10:52:08.109Z,102047.47
2023-02-02T10:54:56.499Z,102044.75
2023-02-02T10:57:46.075Z,102047.47
2023-02-02T11:00:23.328Z,102055.28
2023-02-02T11:02:53.870Z,102057.00
2023-02-02T11:05:43.846Z,102085.75
2023-02-02T11:08:18.887Z,102051.44
2023-02-02T11:10:51.157Z,102061.09
2023-02-02T11:13:30.378Z,102061.78
2023-02-02T11:16:41.318Z,102046.50
2023-02-02T11:19:29.976Z,102050.00
2023-02-02T11:22:02.889Z,102049.75
2023-02-02T11:24:36.866Z,102050.47
2023-02-02T11:27:09.419Z,102058.31
2023-02-02T11:29:45.375Z,102043.19
2023-02-02T11:32:23.730Z,102022.59
2023-02-02T11:35:16.666Z,102032.81
2023-02-02T11:38:01.319Z,102027.22
2023-02-02T11:40:33.346Z,102021.66
2023-02-02T11:43:06.299Z,102015.31
2023-02-02T11:45:39.682Z,102020.50
2023-02-02T11:48:18.462Z,102018.63
2023-02-02T11:50:49.634Z,102012.03
2023-02-02T11:53:28.460Z,102008.47
2023-02-02T11:55:59.923Z,102001.31
2023-02-02T11:58:29.657Z,101994.16
2023-02-02T12:01:02.371Z,101985.09
2023-02-02T12:03:37.542Z,102017.78
2023-02-02T12:06:21.591Z,102002.53
2023-02-02T12:08:54.568Z,102016.69
2023-02-02T12:11:37.242Z,101987.56
2023-02-02T12:14:31.924Z,101993.53
2023-02-02T12:17:13.113Z,101977.31
2023-02-02T12:19:57.636Z,101991.22
2023-02-02T12:22:45.662Z,101968.47
2023-02-02T12:25:34.209Z,101964.88
2023-02-02T12:28:13.062Z,101969.22
2023-02-02T12:30:45.173Z,101969.66
2023-02-02T12:33:30.642Z,101994.88
2023-02-02T12:36:44.674Z,101958.84
2023-02-02T12:39:32.745Z,101951.31
2023-02-02T12:42:28.440Z,101971.47
2023-02-02T12:45:17.536Z,101986.44
2023-02-02T12:47:57.237Z,101944.09
2023-02-02T12:50:33.279Z,101966.41
2023-02-02T12:53:22.209Z,101937.88
2023-02-02T12:55:59.402Z,101935.88
2023-02-02T12:58:38.650Z,101931.06
2023-02-02T13:01:32.500Z,101912.34
2023-02-02T13:04:12.209Z,101926.31
2023-02-02T13:07:11.064Z,101926.63
2023-02-02T13:09:47.438Z,101917.63
2023-02-02T13:12:20.424Z,101918.47
2023-02-02T13:14:55.472Z,101912.53
2023-02-02T13:17:30.839Z,101920.94
2023-02-02T13:20:06.724Z,101936.06
2023-02-02T13:22:41.515Z,101921.59
2023-02-02T13:25:22.675Z,101942.78
2023-02-02T13:27:55.368Z,101936.63
2023-02-02T13:30:32.421Z,101928.22
2023-02-02T13:33:04.745Z,101948.09
2023-02-02T13:35:36.983Z,101929.63
2023-02-02T13:38:16.799Z,101926.63
2023-02-02T13:40:46.277Z,101928.78
2023-02-02T13:43:36.234Z,101922.59
2023-02-02T13:46:18.377Z,101918.22
2023-02-02T13:48:58.240Z,101904.88
2023-02-02T13:51:51.508Z,101907.34
2023-02-02T13:55:11.633Z,101920.97
2023-02-02T13:58:05.514Z,101929.97
2023-02-02T14:00:37.675Z,101918.16
2023-02-02T14:03:27.872Z,101927.56
2023-02-02T14:06:09.904Z,101918.13
2023-02-02T14:08:39.533Z,101935.25
2023-02-02T14:11:09.784Z,101935.41
2023-02-02T14:14:03.853Z,101935.66
2023-02-02T14:16:51.197Z,101929.22
2023-02-02T14:19:55.581Z,101931.06
2023-02-02T14:22:44.881Z,101929.56
2023-02-02T14:25:55.885Z,101941.78
2023-02-02T14:28:49.085Z,101932.00
2023-02-02T14:31:31.858Z,101930.00
2023-02-02T14:34:31.135Z,101922.78
2023-02-02T14:37:31.180Z,101896.09
2023-02-02T14:40:12.943Z,101912.81
2023-02-02T14:43:13.121Z,101934.66
2023-02-02T14:45:42.535Z,101922.22
2023-02-02T14:48:17.717Z,101922.69
2023-02-02T14:50:52.964Z,101929.59
2023-02-02T14:53:25.808Z,101929.69
2023-02-02T14:55:59.938Z,101927.19
2023-02-02T14:58:34.254Z,101925.44
2023-02-02T15:01:10.493Z,101909.44
2023-02-02T15:03:49.556Z,101892.41
2023-02-02T15:06:33.226Z,101892.88
2023-02-02T15:09:36.811Z,101885.41
2023-02-02T15:12:27.736Z,101884.09
2023-02-02T15:15:05.416Z,101892.78
2023-02-02T15:17:44.623Z,101899.69
2023-02-02T15:20:21.382Z,101900.22
2023-02-02T15:22:59.114Z,101885.03
2023-02-02T15:25:32.676Z,101907.66
2023-02-02T15:28:11.724Z,101905.63
2023-02-02T15:30:45.264Z,101972.25
2023-02-02T15:33:25.653Z,101914.00
2023-02-02T15:35:55.461Z,101906.84
2023-02-02T15:38:34.950Z,101909.25
2023-02-02T15:41:09.553Z,101911.03
2023-02-02T15:43:38.664Z,101902.19
2023-02-02T15:46:11.601Z,101895.22
2023-02-02T15:48:40.346Z,101890.03
2023-02-02T15:51:17.742Z,101916.47
2023-02-02T15:53:52.973Z,101922.66
2023-02-02T15:56:32.234Z,101912.03
2023-02-02T15:59:02.252Z,101922.53
2023-02-02T16:01:46.646Z,101926.31
2023-02-02T16:04:19.192Z,101941.03
2023-02-02T16:06:49.995Z,101915.59
2023-02-02T16:09:26.319Z,101905.16
2023-02-02T16:11:55.426Z,101904.22
2023-02-02T16:14:25.626Z,101888.38
2023-02-02T16:16:54.632Z,101887.63
2023-02-02T16:19:24.846Z,101903.59
2023-02-02T16:21:59.614Z,101891.25
2023-02-02T16:24:33.392Z,101908.97
2023-02-02T16:27:06.389Z,101885.16
2023-02-02T16:29:36.401Z,101880.81
2023-02-02T16:32:06.679Z,101860.56
2023-02-02T16:34:47.827Z,101874.75
2023-02-02T16:37:18.898Z,101879.16
2023-02-02T16:39:48.829Z,101898.41
2023-02-02T16:42:26.719Z,101878.84
2023-02-02T16:44:56.218Z,101884.09
2023-02-02T16:47:38.073Z,101894.59
2023-02-02T16:50:31.533Z,101913.38
2023-02-02T16:53:04.138Z,101913.59
2023-02-02T16:55:49.823Z,101919.75
2023-02-02T16:58:24.517Z,101909.81
2023-02-02T17:01:13.973Z,101920.50
2023-02-02T17:03:51.354Z,101918.13
2023-02-02T17:06:45.831Z,101922.69
2023-02-02T17:09:35.694Z,101915.03
2023-02-02T17:12:14.272Z,101922.41
2023-02-02T17:14:53.596Z,101917.03
2023-02-02T17:17:23.029Z,101950.09
2023-02-02T17:19:51.823Z,101914.53
2023-02-02T17:22:23.615Z,101925.31
2023-02-02T17:24:53.932Z,101962.72
2023-02-02T17:27:28.935Z,101930.13
2023-02-02T17:29:58.845Z,101955.75
2023-02-02T17:32:27.267Z,101975.91
2023-02-02T17:34:55.593Z,101969.44
2023-02-02T17:37:23.897Z,101972.09
2023-02-02T17:39:52.791Z,101988.44
2023-02-02T17:42:26.831Z,102002.38
2023-02-02T17:44:55.504Z,102006.09
2023-02-02T17:47:24.105Z,102011.50
2023-02-02T17:49:53.112Z,102022.97
2023-02-02T17:52:22.066Z,102016.13
2023-02-02T17:54:50.697Z,102029.03
2023-02-02T17:57:19.323Z,102014.91
2023-02-02T17:59:49.468Z,102035.84
2023-02-02T18:02:18.816Z,102031.28
2023-02-02T18:04:47.515Z,102013.41
2023-02-02T18:07:16.003Z,102023.63
2023-02-02T18:09:44.564Z,102023.78
2023-02-02T18:12:13.306Z,102034.31
2023-02-02T18:14:41.905Z,102048.38
2023-02-02T18:17:11.905Z,102045.44
2023-02-02T18:19:44.950Z,102042.47
2023-02-02T18:22:15.659Z,102052.75
2023-02-02T18:24:44.245Z,102058.94
2023-02-02T18:27:13.032Z,102063.13
2023-02-02T18:29:41.519Z,102077.78
2023-02-02T18:32:11.676Z,102071.44
2023-02-02T18:34:40.380Z,102078.44
2023-02-02T18:37:09.821Z,102083.00
2023-02-02T18:39:39.459Z,102087.69
2023-02-02T18:42:08.202Z,102096.69
2023-02-02T18:44:38.763Z,102117.16
2023-02-02T18:47:08.415Z,102108.69
2023-02-02T18:49:38.509Z,102092.47
2023-02-02T18:52:07.236Z,102105.25
2023-02-02T18:54:36.027Z,102108.84
2023-02-02T18:57:05.336Z,102091.47
2023-02-02T18:59:36.333Z,102104.78
2023-02-02T19:02:05.126Z,102100.59
2023-02-02T19:04:33.710Z,102101.34
2023-02-02T19:07:21.168Z,102107.25
2023-02-02T19:09:49.911Z,102090.75
2023-02-02T19:12:19.751Z,102096.09
2023-02-02T19:14:48.608Z,102095.88
2023-02-02T19:17:24.844Z,102097.56
2023-02-02T19:19:55.287Z,102088.81
2023-02-02T19:22:30.809Z,102095.75
2023-02-02T19:25:00.625Z,102082.56
2023-02-02T19:27:29.475Z,102093.66
2023-02-02T19:30:03.467Z,102094.25
2023-02-02T19:32:35.259Z,102123.66
2023-02-02T19:35:05.987Z,102106.69
2023-02-02T19:37:40.292Z,102080.41
2023-02-02T19:40:21.954Z,102084.75
2023-02-02T19:42:55.792Z,102087.50
2023-02-02T19:45:29.054Z,102072.09
2023-02-02T19:48:03.705Z,102064.41
2023-02-02T19:50:41.188Z,102075.94
2023-02-02T19:53:20.857Z,102070.66
2023-02-02T19:55:49.679Z,102068.16
2023-02-02T19:58:21.874Z,102071.50
2023-02-02T20:00:53.888Z,102068.78
2023-02-02T20:03:25.819Z,102072.22
2023-02-02T20:05:56.340Z,102059.97
2023-02-02T20:08:30.265Z,102062.44
2023-02-02T20:11:02.368Z,102066.59
2023-02-02T20:13:40.310Z,102074.41
2023-02-02T20:16:17.291Z,102058.47
2023-02-02T20:18:48.710Z,102075.91
2023-02-02T20:21:24.030Z,102071.47
2023-02-02T20:23:54.499Z,102082.75
2023-02-02T20:26:27.092Z,102076.69
2023-02-02T20:28:59.167Z,102076.53
2023-02-02T20:31:36.314Z,102079.16
2023-02-02T20:34:21.932Z,102094.75
2023-02-02T20:36:51.398Z,102076.38
2023-02-02T20:39:35.588Z,102071.75
2023-02-02T20:42:05.501Z,102088.50
2023-02-02T20:44:37.965Z,102083.00
2023-02-02T20:47:08.287Z,102111.78
2023-02-02T20:49:39.204Z,102105.88
2023-02-02T20:52:12.834Z,102110.22
2023-02-02T20:54:43.051Z,102114.69
2023-02-02T20:57:11.774Z,102119.97
2023-02-02T20:59:40.172Z,102113.28
2023-02-02T21:02:10.854Z,102113.59
2023-02-02T21:04:39.581Z,102130.31
2023-02-02T21:07:08.453Z,102135.69
2023-02-02T21:09:37.612Z,102117.31
2023-02-02T21:12:07.857Z,102124.28
2023-02-02T21:14:36.922Z,102116.28
2023-02-02T21:17:14.952Z,102105.69
2023-02-02T21:19:45.362Z,102116.06
2023-02-02T21:22:15.028Z,102113.38
2023-02-02T21:24:43.242Z,102104.47
2023-02-02T21:27:13.520Z,102117.28
2023-02-02T21:29:42.203Z,102108.66
2023-02-02T21:32:10.771Z,102117.63
2023-02-02T21:34:39.355Z,102096.69
2023-02-02T21:37:14.174Z,102108.03
2023-02-02T21:39:48.848Z,102099.41
2023-02-02T21:42:21.397Z,102078.44
2023-02-02T21:44:54.449Z,102064.19
2023-02-02T21:47:34.127Z,102075.75
2023-02-02T21:50:16.210Z,102079.75
2023-02-02T21:52:45.302Z,102089.72
2023-02-02T21:55:36.162Z,102115.13
2023-02-02T21:58:18.873Z,102108.03
2023-02-02T22:00:48.307Z,102093.16
2023-02-02T22:03:35.985Z,102097.47
2023-02-02T22:06:24.730Z,102079.44
2023-02-02T22:08:55.653Z,102086.56
2023-02-02T22:11:29.932Z,102084.84
2023-02-02T22:14:17.039Z,102090.13
2023-02-02T22:16:50.701Z,102105.94
2023-02-02T22:19:36.799Z,102085.41
2023-02-02T22:22:20.568Z,102094.94
2023-02-02T22:24:58.764Z,102086.25
2023-02-02T22:27:42.342Z,102103.69
2023-02-02T22:30:25.190Z,102096.72
2023-02-02T22:32:56.406Z,102091.44
2023-02-02T22:35:24.888Z,102096.50
2023-02-02T22:37:53.628Z,102098.38
2023-02-02T22:40:24.281Z,102097.66
2023-02-02T22:42:55.632Z,102100.78
2023-02-02T22:45:27.129Z,102105.03
2023-02-02T22:47:56.130Z,102088.44
2023-02-02T22:50:27.042Z,102124.13
2023-02-02T22:52:56.230Z,102104.59
2023-02-02T22:55:25.396Z,102104.59
2023-02-02T22:57:54.265Z,102100.09
2023-02-02T23:00:25.351Z,102083.56
2023-02-02T23:02:57.116Z,102083.34
2023-02-02T23:05:27.654Z,102095.53
2023-02-02T23:07:57.739Z,102092.00
2023-02-02T23:10:29.669Z,102103.22
2023-02-02T23:12:59.502Z,102089.84
2023-02-02T23:15:30.930Z,102090.88
2023-02-02T23:18:01.145Z,102086.44
2023-02-02T23:20:42.208Z,102095.22
2023-02-02T23:23:10.802Z,102095.13
2023-02-02T23:25:39.854Z,102097.84
2023-02-02T23:28:10.723Z,102100.63
2023-02-02T23:30:39.337Z,102118.09
2023-02-02T23:33:09.670Z,102115.38
2023-02-02T23:35:38.514Z,102133.09
2023-02-02T23:38:06.807Z,102121.59
2023-02-02T23:40:35.562Z,102136.41
2023-02-02T23:43:04.157Z,102132.06
2023-02-02T23:45:33.173Z,102123.22
2023-02-02T23:48:02.053Z,102128.66
2023-02-02T23:50:38.667Z,102134.66
2023-02-02T23:53:08.057Z,102123.44
2023-02-02T23:55:36.984Z,102135.88
2023-02-02T23:58:05.313Z,102125.94
